Airfield :
LOGIN :

Register | Disclaimer

   EN    FR    IT 

 










Legend :    VFR   Marginal VFR   IFR   Intensive IFR   Very Intensive IFR
Visi :
Ceiling :
>= 8 km
>= 3000ft
5 to 8 km
1000 to 3000 ft
1500m to 5 km
500 to 1000 ft
800 to 1500m
200 to 500 ft
< 800m
< 200 ft
Symbols :   Thunderstorms  Fog  Heavy snow  Heavy precipitations  Wind > 20 kt
SIGMETs :     Misc.  Thunderstorms  Icing  Turbulence  Mountain Waves  Volcanic Ashes






- Airport Elevation : 13 ft
- IATA code : SNR


LFRZ - St-Nazaire

CURRENT METAR :
  • 090730Z AUTO 04009KT CAVOK 21/13 Q1023 NOSIG

EXPIRED METARs :
  • 090700Z AUTO 03010KT 360V060 CAVOK 20/13 Q1024 NOSIG
  • 090630Z AUTO 03009KT 360V060 CAVOK 19/12 Q1024 NOSIG
  • 090600Z AUTO 02008KT CAVOK 18/12 Q1023 NOSIG
  • 090530Z AUTO 03008KT CAVOK 18/12 Q1023 NOSIG
  • 090500Z AUTO 02008KT CAVOK 18/12 Q1023 NOSIG

TAF TAF LFRZ
Valid from the 09 at 06:00 until the 10 at 06:00 UTC


090500Z 0906/1006 03008KT CAVOK



MET'MAP, your aeronautical weather chart ! - Copyright ORBIFLY December 2007 - Disclaimer

ORBIFLY MET'MAP TEAM :

Programming & Development : Alexandra Zaïnal
Original concept : Baudouin d'Aumeries
Technical & hardware support : Manuel Goepfert
Assistance : Marc-Olivier Méhu




SOURCES & CREDITS :

   NOAA